Airfield :
LOGIN :

Register | Disclaimer

   EN    FR    IT 

 










Legend :    VFR   Marginal VFR   IFR   Intensive IFR   Very Intensive IFR
Visi :
Ceiling :
>= 8 km
>= 3000ft
5 to 8 km
1000 to 3000 ft
1500m to 5 km
500 to 1000 ft
800 to 1500m
200 to 500 ft
< 800m
< 200 ft
Symbols :   Thunderstorms  Fog  Heavy snow  Heavy precipitations  Wind > 20 kt
SIGMETs :     Misc.  Thunderstorms  Icing  Turbulence  Mountain Waves  Volcanic Ashes







- Airport Elevation : 1906 ft
- IATA code : INN


LOWI - Innsbruck

CURRENT METAR :
  • 211650Z 14003KT 080V180 CAVOK 13/08 Q1020 NOSIG

EXPIRED METARs :
  • 211620Z 06004KT 030V120 9999 FEW070 15/07 Q1019 NOSIG
  • 211550Z 07004KT 020V150 9999 FEW065 17/07 Q1019 NOSIG
  • 211520Z 11004KT 060V150 9999 FEW065 17/04 Q1019 NOSIG
  • 211450Z 08004KT 020V150 9999 FEW060 18/04 Q1020 NOSIG

TAF TAF LOWI
Valid from the 21 at 12:00 until the 22 at 12:00 UTC


211115Z 2112/2212 09007KT 9999 FEW050 TX17/2114Z TN05/2205Z
BECMG 2116/2118 VRB02KT CAVOK
TEMPO 2202/2206 08003KT 9999 SCT008
No reported NOTAMs for that airfield.



MET'MAP, your aeronautical weather chart ! - Copyright ORBIFLY December 2007 - Disclaimer

ORBIFLY MET'MAP TEAM :

Programming & Development : Alexandra Zaïnal
Concept & Development : Baudouin d'Aumeries
Co-Development & Prog : Marc-Olivier Méhu
Technical & hardware support : Manuel Goepfert

Contact : metmap@orbifly.com




SOURCES & CREDITS :

   NOAA